createdAt,value
2022-08-10T00:03:41.599Z,23.21
2022-08-10T00:08:43.414Z,23.18
2022-08-10T00:13:44.843Z,23.06
2022-08-10T00:18:46.181Z,23.04
2022-08-10T00:23:47.503Z,22.77
2022-08-10T00:28:48.847Z,22.68
2022-08-10T00:33:50.197Z,22.67
2022-08-10T00:38:51.499Z,22.49
2022-08-10T00:43:52.836Z,22.47
2022-08-10T00:49:00.272Z,22.45
2022-08-10T00:54:02.197Z,22.45
2022-08-10T00:59:03.733Z,22.52
2022-08-10T01:04:54.451Z,22.55
2022-08-10T01:09:28.752Z,22.51
2022-08-10T01:14:54.880Z,22.44
2022-08-10T01:20:06.412Z,22.40
2022-08-10T01:25:28.842Z,22.36
2022-08-10T01:30:32.822Z,22.40
2022-08-10T01:35:50.173Z,22.42
2022-08-10T01:41:02.314Z,22.42
2022-08-10T01:46:05.951Z,22.38
2022-08-10T01:51:22.025Z,22.41
2022-08-10T01:56:25.160Z,22.38
2022-08-10T02:01:32.383Z,22.35
2022-08-10T02:06:39.826Z,22.27
2022-08-10T02:12:05.339Z,22.20
2022-08-10T02:17:58.153Z,22.17
2022-08-10T02:22:40.317Z,22.15
2022-08-10T02:27:43.490Z,22.10
2022-08-10T02:32:52.764Z,22.07
2022-08-10T02:37:59.694Z,22.08
2022-08-10T02:45:22.325Z,22.09
2022-08-10T02:48:47.126Z,22.05
2022-08-10T02:53:56.994Z,21.99
2022-08-10T02:59:06.931Z,22.00
2022-08-10T03:04:56.022Z,22.00
2022-08-10T03:09:47.349Z,21.96
2022-08-10T03:14:50.510Z,21.89
2022-08-10T03:20:34.422Z,21.80
2022-08-10T03:25:15.542Z,21.76
2022-08-10T03:30:23.412Z,21.72
2022-08-10T03:35:35.102Z,21.73
2022-08-10T03:40:46.109Z,21.68
2022-08-10T03:45:57.686Z,21.79
2022-08-10T03:51:01.160Z,21.66
2022-08-10T03:56:28.333Z,21.62
2022-08-10T04:02:46.580Z,21.47
2022-08-10T04:06:46.443Z,21.54
2022-08-10T04:11:52.673Z,21.54
2022-08-10T04:16:54.356Z,21.57
2022-08-10T04:22:07.471Z,21.51
2022-08-10T04:27:09.450Z,21.49
2022-08-10T04:32:12.775Z,21.49
2022-08-10T04:37:15.926Z,21.49
2022-08-10T04:42:18.261Z,21.37
2022-08-10T04:47:57.896Z,21.41
2022-08-10T04:52:41.059Z,21.40
2022-08-10T04:57:42.631Z,21.36
2022-08-10T05:02:44.025Z,21.26
2022-08-10T05:07:53.977Z,21.12
2022-08-10T05:12:58.571Z,21.11
2022-08-10T05:18:06.051Z,21.21
2022-08-10T05:23:12.664Z,21.31
2022-08-10T05:28:14.089Z,21.46
2022-08-10T05:33:15.406Z,21.41
2022-08-10T05:38:18.352Z,21.58
2022-08-10T05:43:21.580Z,21.72
2022-08-10T05:48:55.530Z,21.86
2022-08-10T05:54:01.258Z,21.95
2022-08-10T05:59:04.813Z,22.13
2022-08-10T06:04:08.102Z,22.20
2022-08-10T06:09:11.607Z,22.23
2022-08-10T06:14:34.737Z,22.45
2022-08-10T06:19:39.564Z,22.56
2022-08-10T06:25:12.272Z,22.66
2022-08-10T06:30:20.909Z,22.89
2022-08-10T06:35:27.214Z,23.00
2022-08-10T06:40:34.985Z,23.22
2022-08-10T06:46:07.410Z,23.35
2022-08-10T06:51:17.942Z,23.42
2022-08-10T06:56:35.909Z,23.60
2022-08-10T07:01:43.527Z,23.87
2022-08-10T07:06:55.111Z,23.99
2022-08-10T07:12:08.650Z,24.18
2022-08-10T07:17:17.285Z,24.42
2022-08-10T07:23:01.711Z,24.59
2022-08-10T07:27:58.630Z,24.87
2022-08-10T07:33:02.825Z,25.11
2022-08-10T07:38:07.623Z,25.39
2022-08-10T07:43:10.903Z,25.51
2022-08-10T07:48:17.288Z,25.59
2022-08-10T07:53:23.394Z,25.63
2022-08-10T07:58:34.346Z,25.98
2022-08-10T08:03:36.562Z,26.22
2022-08-10T08:08:40.579Z,26.44
2022-08-10T08:13:43.397Z,26.70
2022-08-10T08:19:04.009Z,26.80
2022-08-10T08:24:31.054Z,26.93
2022-08-10T08:29:35.229Z,27.25
2022-08-10T08:34:42.406Z,27.42
2022-08-10T08:39:46.202Z,27.59
2022-08-10T08:45:10.458Z,27.65
2022-08-10T08:50:31.107Z,28.10
2022-08-10T08:56:03.574Z,28.12
2022-08-10T09:01:14.759Z,28.65
2022-08-10T09:06:28.852Z,28.76
2022-08-10T09:11:59.145Z,28.46
2022-08-10T09:17:08.276Z,28.73
2022-08-10T09:22:25.958Z,29.00
2022-08-10T09:27:52.404Z,29.48
2022-08-10T09:36:26.375Z,29.97
2022-08-10T09:38:51.246Z,30.59
2022-08-10T09:44:15.072Z,30.77
2022-08-10T09:49:53.291Z,30.68
2022-08-10T09:55:14.660Z,30.37
2022-08-10T10:00:20.355Z,31.31
2022-08-10T10:05:33.145Z,30.79
2022-08-10T10:11:02.682Z,30.42
2022-08-10T10:16:41.202Z,30.79
2022-08-10T10:21:54.146Z,31.88
2022-08-10T10:27:03.645Z,32.74
2022-08-10T10:32:15.673Z,34.40
2022-08-10T10:37:20.641Z,37.50
2022-08-10T10:42:50.343Z,36.58
2022-08-10T10:48:24.347Z,35.38
2022-08-10T10:53:49.298Z,35.55
2022-08-10T10:59:55.364Z,35.61
2022-08-10T11:04:52.902Z,36.45
2022-08-10T11:10:12.287Z,36.36
2022-08-10T11:15:48.292Z,37.25
2022-08-10T11:21:10.585Z,36.87
2022-08-10T11:26:28.969Z,36.68
2022-08-10T11:32:02.240Z,37.18
2022-08-10T11:37:21.984Z,37.74
2022-08-10T11:42:36.389Z,37.83
2022-08-10T11:47:50.543Z,37.12
2022-08-10T11:53:05.405Z,37.47
2022-08-10T11:58:31.620Z,36.53
2022-08-10T12:03:35.985Z,36.52
2022-08-10T12:10:03.934Z,36.34
2022-08-10T12:14:28.864Z,35.77
2022-08-10T12:20:02.239Z,35.76
2022-08-10T12:25:11.559Z,35.58
2022-08-10T12:30:38.415Z,34.86
2022-08-10T12:36:18.625Z,34.87
2022-08-10T12:41:44.809Z,35.28
2022-08-10T12:46:46.776Z,35.11
2022-08-10T12:52:00.342Z,35.38
2022-08-10T12:57:08.911Z,34.82
2022-08-10T13:02:18.688Z,34.81
2022-08-10T13:08:03.958Z,34.50
2022-08-10T13:12:56.744Z,34.49
2022-08-10T13:18:01.145Z,34.20
2022-08-10T13:23:11.170Z,34.20
2022-08-10T13:28:37.085Z,34.11
2022-08-10T13:34:40.734Z,34.06
2022-08-10T13:39:10.554Z,34.04
2022-08-10T13:44:15.519Z,34.00
2022-08-10T13:49:19.056Z,33.38
2022-08-10T13:54:24.735Z,33.17
2022-08-10T14:00:33.885Z,33.53
2022-08-10T14:04:54.185Z,33.91
2022-08-10T14:10:01.244Z,33.73
2022-08-10T14:15:07.394Z,33.60
2022-08-10T14:20:14.014Z,33.28
2022-08-10T14:25:17.399Z,32.98
2022-08-10T14:30:18.930Z,32.57
2022-08-10T14:36:18.772Z,32.18
2022-08-10T14:40:50.188Z,31.94
2022-08-10T14:46:05.620Z,31.75
2022-08-10T14:51:09.082Z,31.48
2022-08-10T14:56:16.333Z,31.42
2022-08-10T15:01:20.370Z,31.47
2022-08-10T15:06:30.576Z,31.41
2022-08-10T15:12:14.355Z,31.36
2022-08-10T15:16:59.533Z,31.24
2022-08-10T15:22:13.322Z,31.20
2022-08-10T15:27:27.496Z,31.13
2022-08-10T15:33:12.766Z,30.99
2022-08-10T15:38:21.397Z,30.91
2022-08-10T15:43:36.926Z,30.97
2022-08-10T15:49:25.728Z,30.92
2022-08-10T15:54:38.057Z,30.87
2022-08-10T15:59:43.193Z,30.79
2022-08-10T16:04:57.399Z,30.79
2022-08-10T16:10:24.453Z,30.74
2022-08-10T16:15:30.606Z,30.72
2022-08-10T16:20:53.527Z,30.70
2022-08-10T16:26:15.265Z,30.60
2022-08-10T16:31:24.813Z,30.55
2022-08-10T16:36:40.787Z,30.50
2022-08-10T16:42:02.914Z,30.43
2022-08-10T16:47:08.534Z,30.33
2022-08-10T16:52:11.332Z,30.31
2022-08-10T16:57:14.629Z,30.23
2022-08-10T17:02:18.379Z,30.21
2022-08-10T17:07:30.646Z,30.09
2022-08-10T17:12:34.612Z,30.07
2022-08-10T17:17:46.680Z,30.01
2022-08-10T17:22:54.627Z,29.92
2022-08-10T17:28:05.634Z,29.87
2022-08-10T17:33:13.579Z,29.82
2022-08-10T17:38:23.781Z,29.71
2022-08-10T17:43:46.331Z,29.61
2022-08-10T17:48:48.177Z,29.53
2022-08-10T17:53:52.475Z,29.41
2022-08-10T17:58:59.081Z,29.35
2022-08-10T18:04:05.218Z,29.23
2022-08-10T18:09:12.451Z,29.12
2022-08-10T18:14:16.624Z,29.00
2022-08-10T18:19:18.118Z,28.86
2022-08-10T18:24:21.166Z,28.77
2022-08-10T18:29:27.549Z,28.65
2022-08-10T18:34:32.622Z,28.55
2022-08-10T18:39:37.662Z,28.46
2022-08-10T18:44:44.707Z,28.37
2022-08-10T18:49:59.701Z,28.26
2022-08-10T18:55:24.513Z,28.17
2022-08-10T19:01:04.772Z,27.99
2022-08-10T19:06:19.136Z,27.92
2022-08-10T19:11:47.863Z,27.76
2022-08-10T19:18:03.619Z,27.64
2022-08-10T19:23:09.125Z,27.53
2022-08-10T19:28:16.708Z,27.45
2022-08-10T19:33:44.113Z,27.38
2022-08-10T19:39:13.346Z,27.23
2022-08-10T19:44:35.506Z,27.11
2022-08-10T19:50:04.348Z,26.99
2022-08-10T19:55:33.588Z,26.89
2022-08-10T20:00:41.002Z,26.81
2022-08-10T20:06:18.539Z,26.72
2022-08-10T20:11:45.173Z,26.62
2022-08-10T20:16:48.747Z,26.47
2022-08-10T20:21:59.336Z,26.32
2022-08-10T20:27:43.549Z,26.17
2022-08-10T20:32:55.307Z,26.09
2022-08-10T20:38:09.272Z,26.02
2022-08-10T20:43:24.206Z,25.95
2022-08-10T20:48:37.946Z,25.85
2022-08-10T20:53:46.751Z,25.73
2022-08-10T20:59:28.961Z,25.67
2022-08-10T21:04:51.320Z,25.59
2022-08-10T21:09:52.566Z,25.55
2022-08-10T21:15:07.075Z,25.50
2022-08-10T21:20:19.172Z,25.39
2022-08-10T21:25:42.747Z,25.30
2022-08-10T21:30:51.146Z,25.25
2022-08-10T21:36:02.263Z,25.20
2022-08-10T21:41:58.011Z,25.16
2022-08-10T21:47:39.570Z,25.01
2022-08-10T21:53:22.366Z,24.95
2022-08-10T21:59:21.488Z,24.93
2022-08-10T22:04:45.581Z,24.86
2022-08-10T22:10:08.752Z,24.82
2022-08-10T22:21:45.714Z,24.68
2022-08-10T22:27:46.691Z,24.64
2022-08-10T22:31:28.510Z,24.75
2022-08-10T22:33:22.701Z,24.59
2022-08-10T22:40:11.061Z,24.52
2022-08-10T22:45:05.765Z,24.49
2022-08-10T22:50:10.475Z,24.46
2022-08-10T22:55:42.812Z,24.33
2022-08-10T23:01:11.924Z,24.33
2022-08-10T23:06:19.645Z,24.28
2022-08-10T23:11:32.597Z,24.25
2022-08-10T23:17:14.003Z,24.23
2022-08-10T23:22:19.393Z,24.17
2022-08-10T23:27:38.264Z,24.14
2022-08-10T23:32:47.756Z,24.07
2022-08-10T23:37:54.995Z,23.96
2022-08-10T23:42:58.118Z,23.93
2022-08-10T23:48:00.252Z,23.90
2022-08-10T23:53:13.638Z,23.84
2022-08-10T23:58:33.654Z,23.82
